Time;durP1;ratioP1;P1;durP2;ratioP2;P2;SDS_P1;SDS_P2;PMS_P1;PMS_P2;Temp;Humidity;BMP_temperature;BMP_pressure;BME280_temperature;BME280_humidity;BME280_pressure;Samples;Min_cycle;Max_cycle;Signal;HPM_P1;HPM_P2
2022/09/26 00:01:21;;;;;;;0.60;0.60;;;;;;;6.30;96.96;98253.94;4917758;29;20062;-80
2022/09/26 00:03:51;;;;;;;0.60;0.60;;;;;;;6.29;96.86;98252.31;4901340;29;20139;-81
2022/09/26 00:06:19;;;;;;;0.70;0.70;;;;;;;6.27;96.80;98254.41;4916509;29;20098;-81
2022/09/26 00:08:47;;;;;;;0.70;0.70;;;;;;;6.23;96.52;98251.38;4917602;29;20096;-80
2022/09/26 00:11:18;;;;;;;0.60;0.60;;;;;;;6.20;96.67;98249.19;4917610;29;20055;-81
2022/09/26 00:13:46;;;;;;;0.70;0.70;;;;;;;6.19;96.58;98252.09;4917625;29;20056;-80
2022/09/26 00:16:14;;;;;;;0.60;0.60;;;;;;;6.18;96.28;98253.97;4917235;29;20056;-80
2022/09/26 00:18:41;;;;;;;0.60;0.60;;;;;;;6.16;96.28;98252.56;4917972;29;21099;-80
2022/09/26 00:21:11;;;;;;;0.65;0.65;;;;;;;6.16;96.52;98252.56;4917737;29;20059;-81
2022/09/26 00:23:38;;;;;;;0.70;0.70;;;;;;;6.17;96.67;98255.00;4917652;29;20423;-81
2022/09/26 00:26:05;;;;;;;0.70;0.70;;;;;;;6.18;96.81;98253.13;4917289;29;20055;-81
2022/09/26 00:28:33;;;;;;;0.70;0.70;;;;;;;6.19;96.82;98254.78;4916930;29;20504;-81
2022/09/26 00:31:11;;;;;;;0.68;0.68;;;;;;;6.19;97.33;98257.44;4917397;29;20099;-80
2022/09/26 00:33:38;;;;;;;0.70;0.70;;;;;;;6.18;97.75;98256.63;4917189;29;20056;-81
2022/09/26 00:36:07;;;;;;;0.65;0.65;;;;;;;6.18;97.75;98261.16;4900562;29;20056;-81
2022/09/26 00:38:35;;;;;;;0.70;0.70;;;;;;;6.19;97.53;98265.47;4924622;29;20051;-81
2022/09/26 00:41:02;;;;;;;0.70;0.70;;;;;;;6.18;97.64;98263.84;4934794;29;20058;-81
2022/09/26 00:43:35;;;;;;;0.60;0.60;;;;;;;6.14;97.89;98260.81;4935759;29;20070;-80
2022/09/26 00:46:17;;;;;;;0.70;0.70;;;;;;;6.15;98.04;98265.13;4918807;29;20166;-81
2022/09/26 00:48:52;;;;;;;0.70;0.70;;;;;;;6.13;97.96;98264.56;4935766;29;20143;-81
2022/09/26 00:51:19;;;;;;;0.70;0.70;;;;;;;6.11;98.20;98272.00;4936089;29;20059;-80
2022/09/26 00:53:49;;;;;;;0.70;0.70;;;;;;;6.05;98.49;98268.41;4935404;29;20138;-80
2022/09/26 00:56:21;;;;;;;0.70;0.70;;;;;;;6.07;98.96;98274.31;4918677;29;20055;-80
2022/09/26 00:58:52;;;;;;;0.70;0.70;;;;;;;6.07;98.88;98277.00;4918842;29;20051;-80
2022/09/26 01:01:19;;;;;;;0.70;0.70;;;;;;;6.12;99.03;98278.19;4934531;29;20047;-80
2022/09/26 01:03:49;;;;;;;0.60;0.60;;;;;;;6.11;98.78;98273.88;4918190;29;20541;-81
2022/09/26 01:06:17;;;;;;;0.70;0.70;;;;;;;6.04;98.75;98274.78;4918782;29;20062;-81
2022/09/26 01:08:50;;;;;;;0.70;0.70;;;;;;;6.04;98.81;98280.16;4935326;29;20058;-81
2022/09/26 01:11:17;;;;;;;0.70;0.70;;;;;;;6.06;98.74;98278.06;4934254;29;20050;-81
2022/09/26 01:13:44;;;;;;;0.68;0.68;;;;;;;6.05;98.79;98271.09;4935397;29;20179;-80
2022/09/26 01:16:12;;;;;;;0.60;0.60;;;;;;;6.06;98.40;98277.25;4918150;29;20536;-80
2022/09/26 01:18:39;;;;;;;0.70;0.70;;;;;;;6.06;98.29;98278.06;4917603;29;20396;-80
2022/09/26 01:21:32;;;;;;;0.60;0.60;;;;;;;6.03;98.26;98273.19;4919309;29;20052;-81
2022/09/26 01:24:04;;;;;;;0.70;0.70;;;;;;;5.99;98.50;98277.34;4934417;29;20055;-80
2022/09/26 01:27:13;;;;;;;0.70;0.70;;;;;;;6.01;98.69;98277.94;4918722;29;20048;-81
2022/09/26 01:30:05;;;;;;;0.70;0.70;;;;;;;6.02;98.64;98271.53;4902417;29;20055;-80
2022/09/26 01:33:06;;;;;;;0.70;0.70;;;;;;;6.00;98.49;98279.00;4894743;29;20051;-81
2022/09/26 01:36:12;;;;;;;0.70;0.70;;;;;;;5.99;98.58;98281.91;4918189;29;20052;-81
2022/09/26 01:38:51;;;;;;;0.70;0.70;;;;;;;5.98;98.63;98282.97;4857417;29;20121;-81
2022/09/26 01:41:38;;;;;;;0.70;0.70;;;;;;;5.94;98.50;98290.63;4842474;29;20533;-80
2022/09/26 01:44:16;;;;;;;0.70;0.70;;;;;;;5.92;98.62;98287.34;4842157;29;20110;-81
2022/09/26 01:47:20;;;;;;;0.70;0.70;;;;;;;5.92;98.73;98297.22;4856995;29;20065;-80
2022/09/26 01:50:28;;;;;;;0.80;0.80;;;;;;;5.92;99.00;98298.03;4842115;29;20521;-81
2022/09/26 01:53:02;;;;;;;0.65;0.65;;;;;;;5.88;99.10;98291.53;4827529;29;20060;-80
2022/09/26 01:56:04;;;;;;;0.70;0.70;;;;;;;5.91;99.21;98293.75;4841407;29;20434;-80
2022/09/26 01:58:38;;;;;;;0.70;0.70;;;;;;;5.90;98.98;98291.28;4805364;29;20066;-80
2022/09/26 02:01:09;;;;;;;;;;;;;;;5.82;99.04;98293.28;4806279;29;20058;-81
2022/09/26 02:03:41;;;;;;;0.70;0.70;;;;;;;5.77;98.99;98293.16;4805905;29;20457;-80
2022/09/26 02:06:18;;;;;;;0.80;0.80;;;;;;;5.73;98.90;98299.19;4805476;29;20057;-80
2022/09/26 02:08:51;;;;;;;0.70;0.70;;;;;;;5.68;98.92;98301.75;4790152;29;20510;-81
2022/09/26 02:11:20;;;;;;;0.70;0.70;;;;;;;5.58;99.30;98308.47;4790833;29;20110;-82
2022/09/26 02:14:10;;;;;;;0.77;0.77;;;;;;;5.52;99.84;98312.06;4805452;29;20057;-79
2022/09/26 02:16:43;;;;;;;0.80;0.80;;;;;;;5.44;99.92;98317.72;4835047;29;20495;-80
2022/09/26 02:19:55;;;;;;;0.70;0.70;;;;;;;5.37;100.00;98317.03;4841800;29;20057;-80
2022/09/26 02:22:26;;;;;;;0.75;0.75;;;;;;;5.33;100.00;98310.50;4850612;29;20433;-80
2022/09/26 02:24:53;;;;;;;0.70;0.70;;;;;;;5.35;100.00;98317.25;4820153;29;20053;-80
2022/09/26 02:27:23;;;;;;;0.70;0.70;;;;;;;5.45;100.00;98318.56;4834927;29;20089;-80
2022/09/26 02:29:50;;;;;;;0.70;0.70;;;;;;;5.46;100.00;98318.31;4819517;29;20495;-80
2022/09/26 02:32:22;;;;;;;0.70;0.70;;;;;;;5.52;100.00;98330.81;4805473;29;20553;-80
2022/09/26 02:34:49;;;;;;;0.70;0.70;;;;;;;5.60;100.00;98318.97;4855207;29;20056;-80
2022/09/26 02:37:17;;;;;;;0.70;0.70;;;;;;;5.65;99.81;98324.44;4895166;29;20044;-80
2022/09/26 02:39:46;;;;;;;0.70;0.70;;;;;;;5.72;99.87;98332.34;4879054;29;20117;-82
2022/09/26 02:42:35;;;;;;;0.70;0.70;;;;;;;5.78;99.44;98336.81;4909733;29;20123;-80
2022/09/26 02:45:21;;;;;;;0.70;0.70;;;;;;;5.79;99.09;98338.44;4881655;29;20547;-81
2022/09/26 02:48:03;;;;;;;0.70;0.70;;;;;;;5.79;99.04;98339.25;4895348;29;20143;-80
2022/09/26 02:50:55;;;;;;;0.70;0.70;;;;;;;5.77;99.33;98327.13;4897877;29;20103;-80
2022/09/26 02:53:40;;;;;;;0.70;0.70;;;;;;;5.78;99.49;98328.78;4915023;29;20059;-79
2022/09/26 02:56:16;;;;;;;0.80;0.80;;;;;;;5.80;99.24;98318.66;4913549;29;20066;-79
2022/09/26 02:58:51;;;;;;;0.70;0.70;;;;;;;5.83;98.54;98326.22;4887294;29;20519;-80
2022/09/26 03:01:19;;;;;;;0.60;0.60;;;;;;;5.79;97.78;98331.22;4897619;29;20059;-80
2022/09/26 03:03:52;;;;;;;0.70;0.70;;;;;;;5.77;97.46;98321.78;4910260;29;20052;-82
2022/09/26 03:06:31;;;;;;;0.77;0.77;;;;;;;5.78;97.22;98320.75;4898828;29;20044;-81
2022/09/26 03:08:58;;;;;;;0.80;0.80;;;;;;;5.77;97.16;98330.66;4903986;29;20120;-83
2022/09/26 03:11:26;;;;;;;0.73;0.73;;;;;;;5.74;97.04;98323.06;4912940;29;20068;-82
2022/09/26 03:13:56;;;;;;;0.80;0.80;;;;;;;5.73;97.21;98334.00;4897742;29;20048;-83
2022/09/26 03:16:27;;;;;;;0.70;0.70;;;;;;;5.76;97.33;98338.91;4905286;29;20112;-83
2022/09/26 03:18:57;;;;;;;0.70;0.70;;;;;;;5.80;97.40;98330.19;4905367;29;20067;-81
2022/09/26 03:21:25;;;;;;;0.70;0.70;;;;;;;5.79;97.09;98335.75;4899248;29;20058;-81
2022/09/26 03:23:56;;;;;;;0.70;0.70;;;;;;;5.76;97.07;98342.38;4914228;29;20049;-81
2022/09/26 03:26:26;;;;;;;0.70;0.70;;;;;;;5.76;96.90;98334.34;4913820;29;20135;-81
2022/09/26 03:28:57;;;;;;;0.80;0.80;;;;;;;5.72;97.02;98335.88;4897968;29;20131;-82
2022/09/26 03:31:27;;;;;;;0.70;0.70;;;;;;;5.74;97.12;98338.31;4913328;29;20119;-81
2022/09/26 03:33:59;;;;;;;0.70;0.70;;;;;;;5.74;96.67;98332.94;4898863;29;20388;-81
2022/09/26 03:36:28;;;;;;;0.70;0.70;;;;;;;5.75;96.75;98334.59;4903904;29;20056;-82
2022/09/26 03:38:55;;;;;;;0.70;0.70;;;;;;;5.75;97.03;98334.59;4923215;29;20048;-81
2022/09/26 03:41:42;;;;;;;0.70;0.70;;;;;;;5.79;97.16;98341.13;4924131;29;20128;-81
2022/09/26 03:44:18;;;;;;;0.70;0.70;;;;;;;5.81;97.05;98342.50;4911600;29;20060;-80
2022/09/26 03:47:00;;;;;;;0.70;0.70;;;;;;;5.81;96.71;98339.84;4917729;29;20052;-81
2022/09/26 03:49:27;;;;;;;0.70;0.70;;;;;;;5.83;96.76;98343.09;4916953;29;20526;-80
2022/09/26 03:51:54;;;;;;;0.70;0.70;;;;;;;5.88;96.72;98347.78;4883996;29;20055;-81
2022/09/26 03:54:22;;;;;;;0.70;0.70;;;;;;;5.91;96.64;98350.00;4901057;29;20051;-82
2022/09/26 03:56:49;;;;;;;0.70;0.70;;;;;;;5.90;96.89;98350.22;4884861;29;20056;-81
2022/09/26 03:59:16;;;;;;;0.70;0.70;;;;;;;5.88;96.65;98355.00;4901041;29;20518;-81
2022/09/26 04:01:46;;;;;;;0.70;0.70;;;;;;;5.91;96.38;98358.03;4915951;29;20059;-80
2022/09/26 04:04:15;;;;;;;0.70;0.70;;;;;;;5.88;96.23;98346.97;4917441;29;20048;-82
2022/09/26 04:06:43;;;;;;;0.60;0.60;;;;;;;5.93;96.15;98353.25;4900025;29;20187;-80
2022/09/26 04:09:12;;;;;;;0.70;0.70;;;;;;;5.93;95.99;98355.94;4932807;29;20048;-82
2022/09/26 04:11:47;;;;;;;0.70;0.70;;;;;;;5.94;95.98;98354.91;4919001;29;20044;-82
2022/09/26 04:14:14;;;;;;;0.68;0.68;;;;;;;5.93;95.96;98353.25;4919236;29;20139;-81
2022/09/26 04:16:43;;;;;;;0.70;0.70;;;;;;;5.93;95.96;98350.59;4934385;29;20507;-81
2022/09/26 04:19:21;;;;;;;0.70;0.70;;;;;;;5.93;95.92;98347.91;4919029;29;20050;-82
2022/09/26 04:21:49;;;;;;;0.70;0.70;;;;;;;5.96;95.59;98358.19;4935516;29;20051;-81
2022/09/26 04:24:20;;;;;;;0.73;0.73;;;;;;;5.97;95.48;98359.00;4934095;29;20048;-83
2022/09/26 04:26:47;;;;;;;0.70;0.70;;;;;;;5.95;94.98;98355.72;4933851;29;20457;-80
2022/09/26 04:29:15;;;;;;;0.70;0.70;;;;;;;5.96;94.81;98358.19;4903148;29;20134;-82
2022/09/26 04:32:00;;;;;;;0.70;0.70;;;;;;;6.00;95.04;98361.19;4918257;29;20044;-81
2022/09/26 04:34:39;;;;;;;0.70;0.70;;;;;;;6.09;95.23;98367.88;4918401;29;20052;-83
2022/09/26 04:37:08;;;;;;;0.73;0.73;;;;;;;6.03;95.13;98360.75;4917854;29;20059;-82
2022/09/26 04:39:36;;;;;;;0.70;0.70;;;;;;;5.98;95.17;98366.00;4917934;29;20134;-82
2022/09/26 04:42:03;;;;;;;0.70;0.70;;;;;;;5.92;95.41;98367.69;4935880;29;20051;-81
2022/09/26 04:44:31;;;;;;;0.70;0.70;;;;;;;5.95;95.56;98369.13;4917863;29;20079;-81
2022/09/26 04:46:58;;;;;;;0.70;0.70;;;;;;;5.97;96.01;98369.72;4918427;29;20052;-81
2022/09/26 04:49:44;;;;;;;0.80;0.80;;;;;;;5.97;95.82;98372.38;4933507;29;20099;-82
2022/09/26 04:52:12;;;;;;;0.60;0.60;;;;;;;5.98;95.93;98371.34;4917588;29;20050;-80
2022/09/26 04:54:44;;;;;;;0.70;0.70;;;;;;;5.99;95.86;98375.66;4933149;29;20499;-82
2022/09/26 04:57:13;;;;;;;0.70;0.70;;;;;;;6.02;95.95;98377.88;4917541;29;20138;-82
2022/09/26 04:59:45;;;;;;;0.70;0.70;;;;;;;6.02;95.92;98380.53;4919193;29;20157;-83
2022/09/26 05:02:13;;;;;;;0.70;0.70;;;;;;;6.04;95.75;98387.31;4901840;29;20052;-82
2022/09/26 05:04:41;;;;;;;0.70;0.70;;;;;;;6.03;95.73;98382.19;4917581;29;20050;-82
2022/09/26 05:07:10;;;;;;;0.70;0.70;;;;;;;6.03;95.83;98384.88;4901787;29;20052;-82
2022/09/26 05:09:37;;;;;;;0.70;0.70;;;;;;;6.03;95.83;98383.00;4901373;29;20135;-82
2022/09/26 05:12:17;;;;;;;0.70;0.70;;;;;;;6.04;95.90;98387.31;4917076;29;20047;-81
2022/09/26 05:14:47;;;;;;;0.70;0.70;;;;;;;6.03;96.34;98388.38;4900681;29;20052;-82
2022/09/26 05:17:15;;;;;;;0.70;0.70;;;;;;;6.06;96.17;98390.56;4916463;29;20056;-82
2022/09/26 05:19:44;;;;;;;0.70;0.70;;;;;;;5.97;96.40;98389.25;4916700;29;20054;-82
2022/09/26 05:22:29;;;;;;;0.70;0.70;;;;;;;5.93;96.83;98396.13;4932813;29;20070;-82
2022/09/26 05:27:42;;;;;;;0.70;0.70;;;;;;;5.84;98.08;98394.78;4937249;29;20075;-83
2022/09/26 05:30:11;;;;;;;0.70;0.70;;;;;;;5.81;98.28;98395.25;4917910;29;20050;-83
2022/09/26 05:32:39;;;;;;;0.70;0.70;;;;;;;5.82;99.14;98391.53;4901303;29;20404;-81
2022/09/26 05:35:07;;;;;;;0.73;0.73;;;;;;;5.82;99.52;98395.03;4917455;29;20363;-81
2022/09/26 05:37:39;;;;;;;0.70;0.70;;;;;;;5.83;99.69;98399.34;4916751;29;20075;-82
2022/09/26 05:42:58;;;;;;;0.70;0.70;;;;;;;5.84;100.00;98409.00;4934055;29;20342;-82
2022/09/26 05:45:26;;;;;;;0.60;0.60;;;;;;;5.86;100.00;98403.41;4922802;29;20136;-82
2022/09/26 05:47:56;;;;;;;0.70;0.70;;;;;;;5.83;100.00;98407.38;4905010;29;20505;-81
2022/09/26 05:50:24;;;;;;;0.70;0.70;;;;;;;5.85;100.00;98405.28;4897522;29;20625;-81
2022/09/26 05:52:51;;;;;;;0.70;0.70;;;;;;;5.89;100.00;98404.81;4897247;29;20633;-81
2022/09/26 05:55:23;;;;;;;0.70;0.70;;;;;;;5.98;100.00;98414.22;4887379;29;20088;-80
2022/09/26 05:58:10;;;;;;;0.75;0.75;;;;;;;6.03;100.00;98415.16;4866676;29;20227;-82
2022/09/26 06:01:16;;;;;;;0.60;0.60;;;;;;;6.09;99.24;98410.72;4885419;29;20052;-80
2022/09/26 06:03:46;;;;;;;0.70;0.70;;;;;;;6.10;98.79;98409.66;4890751;29;20071;-81
2022/09/26 06:06:23;;;;;;;0.70;0.70;;;;;;;6.15;98.01;98409.78;4896919;29;21062;-80
2022/09/26 06:09:00;;;;;;;0.70;0.70;;;;;;;6.16;96.73;98424.03;4902059;29;20056;-81
2022/09/26 06:11:46;;;;;;;0.70;0.70;;;;;;;6.22;96.11;98425.78;4903614;29;20067;-81
2022/09/26 06:14:13;;;;;;;0.70;0.70;;;;;;;6.27;95.53;98424.03;4892420;29;20182;-80
2022/09/26 06:16:42;;;;;;;0.65;0.65;;;;;;;6.34;94.65;98421.25;4897073;29;20124;-81
2022/09/26 06:19:09;;;;;;;0.70;0.70;;;;;;;6.41;94.23;98419.28;4896512;29;20076;-81
2022/09/26 06:21:39;;;;;;;0.70;0.70;;;;;;;6.43;93.77;98429.75;4892540;29;20056;-81
2022/09/26 06:24:11;;;;;;;0.80;0.80;;;;;;;6.45;93.72;98431.16;4884396;29;20476;-81
2022/09/26 06:26:40;;;;;;;0.70;0.70;;;;;;;6.43;93.15;98433.28;4894061;29;20504;-81
2022/09/26 06:29:09;;;;;;;0.70;0.70;;;;;;;6.45;92.24;98446.44;4889235;29;20056;-81
2022/09/26 06:31:39;;;;;;;0.80;0.80;;;;;;;6.41;91.34;98440.72;4894691;29;20655;-84
2022/09/26 06:34:29;;;;;;;0.70;0.70;;;;;;;6.38;91.85;98435.84;4892399;29;20070;-82
2022/09/26 06:37:20;;;;;;;0.70;0.70;;;;;;;6.43;92.02;98433.28;4889765;29;20619;-81
2022/09/26 06:39:47;;;;;;;0.70;0.70;;;;;;;6.44;91.67;98432.22;4891097;29;20060;-81
2022/09/26 06:42:14;;;;;;;0.70;0.70;;;;;;;6.46;91.74;98442.72;4877689;29;20048;-81
2022/09/26 06:44:50;;;;;;;0.70;0.70;;;;;;;6.38;91.64;98443.03;4866806;29;20069;-79
2022/09/26 06:47:23;;;;;;;0.75;0.75;;;;;;;6.24;92.38;98440.59;4881020;29;20054;-83
2022/09/26 06:50:20;;;;;;;0.70;0.70;;;;;;;6.15;93.70;98433.09;4539124;29;10001011;-81
2022/09/26 06:52:51;;;;;;;0.70;0.70;;;;;;;6.00;94.41;98433.53;4877554;29;20861;-82
2022/09/26 06:55:19;;;;;;;0.70;0.70;;;;;;;6.02;95.18;98442.16;4881539;29;20093;-83
2022/09/26 06:57:46;;;;;;;0.70;0.70;;;;;;;5.97;96.02;98440.16;4871332;29;20068;-80
2022/09/26 07:00:15;;;;;;;0.70;0.70;;;;;;;6.01;96.38;98452.06;4873409;29;20055;-82
2022/09/26 07:03:03;;;;;;;0.70;0.70;;;;;;;6.04;96.62;98451.59;4872104;29;20198;-81
2022/09/26 07:05:44;;;;;;;0.70;0.70;;;;;;;6.13;96.81;98453.94;4871755;29;20060;-80
2022/09/26 07:08:11;;;;;;;0.70;0.70;;;;;;;6.24;96.71;98459.34;4876948;29;20052;-81
2022/09/26 07:10:38;;;;;;;0.80;0.80;;;;;;;6.36;95.93;98459.38;4877456;29;20060;-81
2022/09/26 07:13:11;;;;;;;0.80;0.80;;;;;;;6.45;94.75;98460.66;4889560;29;20058;-79
2022/09/26 07:15:38;;;;;;;0.70;0.70;;;;;;;6.49;93.59;98461.84;4879087;29;20132;-81
2022/09/26 07:18:22;;;;;;;0.80;0.80;;;;;;;6.58;93.26;98456.13;4910636;29;20052;-80
2022/09/26 07:21:18;;;;;;;0.70;0.70;;;;;;;6.62;92.06;98462.66;4852825;29;20186;-81
2022/09/26 07:23:46;;;;;;;0.70;0.70;;;;;;;6.57;91.42;98473.28;4842389;29;20074;-79
2022/09/26 07:26:15;;;;;;;0.80;0.80;;;;;;;6.55;91.26;98467.31;4835993;29;20199;-83
2022/09/26 07:28:43;;;;;;;0.80;0.80;;;;;;;6.60;91.33;98467.44;4833483;29;20522;-81
2022/09/26 07:31:10;;;;;;;0.80;0.80;;;;;;;6.73;91.05;98475.25;4837527;29;20467;-82
2022/09/26 07:34:03;;;;;;;0.70;0.70;;;;;;;6.85;90.19;98473.41;4837502;29;20061;-81
2022/09/26 07:36:30;;;;;;;0.73;0.73;;;;;;;7.07;89.00;98472.81;4842390;29;20561;-81
2022/09/26 07:38:57;;;;;;;0.80;0.80;;;;;;;7.20;87.90;98477.94;4858135;29;20089;-82
2022/09/26 07:41:30;;;;;;;0.80;0.80;;;;;;;7.32;87.12;98476.06;4844518;29;20118;-82
2022/09/26 07:43:58;;;;;;;0.80;0.80;;;;;;;7.37;86.14;98478.84;4843683;29;20057;-81
2022/09/26 07:52:46;;;;;;;0.90;0.90;;;;;;;8.06;82.65;98475.34;4839098;29;20062;-81
2022/09/26 07:55:26;;;;;;;0.80;0.80;;;;;;;8.17;81.62;98487.09;4840837;29;20050;-81
2022/09/26 07:58:14;;;;;;;0.80;0.80;;;;;;;8.13;81.13;98489.47;4875129;29;20056;-80
2022/09/26 08:01:02;;;;;;;0.80;0.80;;;;;;;8.15;80.82;98484.66;4907754;29;20100;-83
2022/09/26 08:03:53;;;;;;;0.75;0.75;;;;;;;8.04;80.47;98496.25;4891442;29;20536;-81
2022/09/26 08:06:26;;;;;;;0.70;0.70;;;;;;;7.96;80.65;98489.41;4882068;29;20080;-80
2022/09/26 08:08:54;;;;;;;0.80;0.80;;;;;;;7.92;80.72;98490.13;4896755;29;20060;-81
2022/09/26 08:11:40;;;;;;;0.80;0.80;;;;;;;7.89;79.69;98490.59;4903958;29;20048;-81
2022/09/26 08:14:47;;;;;;;0.70;0.70;;;;;;;7.83;80.50;98495.06;4895239;29;20418;-80
2022/09/26 08:17:19;;;;;;;0.70;0.70;;;;;;;7.88;80.58;98503.22;4920895;29;20056;-82
2022/09/26 08:19:46;;;;;;;0.70;0.70;;;;;;;7.90;80.45;98502.97;4890266;29;20071;-81
2022/09/26 08:22:13;;;;;;;0.65;0.65;;;;;;;7.88;80.25;98499.72;4883621;29;20077;-81
2022/09/26 08:24:44;;;;;;;0.60;0.60;;;;;;;7.95;80.96;98505.75;4904339;29;20269;-85
2022/09/26 08:27:32;;;;;;;0.60;0.60;;;;;;;7.77;81.48;98512.13;4894459;29;20071;-83
2022/09/26 08:30:03;;;;;;;0.70;0.70;;;;;;;7.59;82.32;98511.22;4895698;29;20071;-82
2022/09/26 08:32:31;;;;;;;0.70;0.70;;;;;;;7.45;82.66;98517.94;4881776;29;20112;-83
2022/09/26 08:34:58;;;;;;;0.70;0.70;;;;;;;7.38;83.34;98515.38;4886257;29;20063;-82
2022/09/26 08:37:31;;;;;;;0.70;0.70;;;;;;;7.44;83.96;98502.03;4908965;29;20053;-82
2022/09/26 08:40:17;;;;;;;0.70;0.70;;;;;;;7.53;83.68;98524.81;4894674;29;20159;-81
2022/09/26 08:43:40;;;;;;;0.75;0.75;;;;;;;7.70;83.26;98516.84;4896276;29;20053;-81
2022/09/26 08:46:57;;;;;;;0.70;0.70;;;;;;;7.67;82.77;98523.50;4913680;29;20056;-85
2022/09/26 08:49:58;;;;;;;0.80;0.80;;;;;;;7.64;82.65;98537.38;4895038;29;20191;-83
2022/09/26 08:52:35;;;;;;;0.70;0.70;;;;;;;7.54;83.16;98534.47;4891343;29;20056;-80
2022/09/26 08:55:20;;;;;;;0.70;0.70;;;;;;;7.46;82.83;98535.66;4880183;29;20061;-83
2022/09/26 08:58:34;;;;;;;0.70;0.70;;;;;;;7.36;83.30;98535.44;4917568;29;20466;-81
2022/09/26 09:01:03;;;;;;;0.70;0.70;;;;;;;7.42;83.18;98541.72;4908955;29;20063;-82
2022/09/26 09:03:57;;;;;;;0.80;0.80;;;;;;;7.57;83.25;98544.75;4888374;29;20051;-81
2022/09/26 09:06:25;;;;;;;0.70;0.70;;;;;;;7.62;82.89;98557.47;4902251;29;20052;-81
2022/09/26 09:08:55;;;;;;;0.70;0.70;;;;;;;7.67;82.65;98549.53;4902109;29;20134;-81
2022/09/26 09:12:07;;;;;;;0.70;0.70;;;;;;;7.83;82.33;98556.84;4903382;29;20070;-81
2022/09/26 09:14:46;;;;;;;0.80;0.80;;;;;;;8.02;81.82;98554.81;4918358;29;20051;-81
2022/09/26 09:17:58;;;;;;;0.70;0.70;;;;;;;8.32;80.68;98549.19;4898953;29;20071;-82
2022/09/26 09:20:48;;;;;;;0.80;0.80;;;;;;;8.35;79.41;98559.47;4903619;29;20099;-81
2022/09/26 09:23:56;;;;;;;0.70;0.70;;;;;;;8.31;78.36;98558.34;4934631;29;20078;-82
2022/09/26 09:27:15;;;;;;;0.80;0.80;;;;;;;8.25;78.69;98557.44;4917810;29;20609;-81
2022/09/26 09:30:13;;;;;;;0.60;0.60;;;;;;;8.32;78.69;98556.44;4898416;29;20126;-82
2022/09/26 09:33:18;;;;;;;0.70;0.70;;;;;;;8.57;78.37;98556.94;4931660;29;20052;-82
2022/09/26 09:35:59;;;;;;;0.70;0.70;;;;;;;8.82;77.29;98566.50;4903538;29;20411;-81
2022/09/26 09:38:43;;;;;;;0.70;0.70;;;;;;;9.22;76.60;98554.78;4933127;29;20055;-82
2022/09/26 09:41:37;;;;;;;0.70;0.70;;;;;;;9.52;75.30;98568.66;4919910;29;20477;-81
2022/09/26 09:44:30;;;;;;;0.75;0.75;;;;;;;9.31;74.62;98569.44;4936492;29;20061;-82
2022/09/26 09:46:58;;;;;;;0.70;0.70;;;;;;;9.20;75.12;98567.66;4860367;29;20601;-82
2022/09/26 09:49:25;;;;;;;0.60;0.60;;;;;;;9.05;74.76;98570.91;4860350;29;20061;-82
2022/09/26 09:52:02;;;;;;;0.60;0.60;;;;;;;8.77;75.04;98566.44;4875109;29;20056;-81
2022/09/26 09:55:06;;;;;;;0.60;0.60;;;;;;;8.55;75.49;98569.00;4835355;29;20174;-83
2022/09/26 09:58:01;;;;;;;0.60;0.60;;;;;;;8.53;76.17;98571.09;4841220;29;20057;-83
2022/09/26 10:00:31;;;;;;;0.70;0.70;;;;;;;8.40;77.21;98585.66;4841575;29;20186;-82
2022/09/26 10:03:23;;;;;;;0.60;0.60;;;;;;;8.13;80.28;98580.84;4846961;29;20051;-81
2022/09/26 10:05:55;;;;;;;0.70;0.70;;;;;;;7.88;82.36;98577.66;4844285;29;20073;-83
2022/09/26 10:08:33;;;;;;;0.60;0.60;;;;;;;7.74;83.81;98585.13;4840648;29;20066;-80
2022/09/26 10:11:33;;;;;;;0.60;0.60;;;;;;;7.72;84.91;98588.06;4504223;29;10001578;-81
2022/09/26 10:14:30;;;;;;;0.70;0.70;;;;;;;7.70;85.93;98584.81;4819847;29;20488;-80
2022/09/26 10:17:09;;;;;;;0.60;0.60;;;;;;;7.80;nan;98593.06;4837183;29;20064;-81
2022/09/26 10:20:02;;;;;;;0.70;0.70;;;;;;;7.82;85.19;98593.66;4833627;29;20050;-81
2022/09/26 10:22:44;;;;;;;0.70;0.70;;;;;;;7.96;85.49;98596.88;4833703;29;20070;-82
2022/09/26 10:25:26;;;;;;;0.60;0.60;;;;;;;7.95;85.04;98591.75;4834249;29;20065;-81
2022/09/26 10:27:55;;;;;;;0.75;0.75;;;;;;;7.97;84.81;98589.63;4851272;29;20477;-81
2022/09/26 10:30:30;;;;;;;0.75;0.75;;;;;;;8.05;85.29;98602.69;4854683;29;20061;-81
2022/09/26 10:33:26;;;;;;;0.80;0.80;;;;;;;8.25;84.82;98591.53;4848317;29;20527;-79
2022/09/26 10:36:21;;;;;;;0.70;0.70;;;;;;;8.33;83.53;98593.88;4870405;29;20052;-81
2022/09/26 10:42:18;;;;;;;0.70;0.70;;;;;;;8.00;83.73;98606.13;4832926;29;20058;-82
2022/09/26 10:44:49;;;;;;;0.60;0.60;;;;;;;7.85;84.40;98607.66;4836994;29;20157;-81
2022/09/26 10:47:23;;;;;;;0.70;0.70;;;;;;;7.85;84.84;98610.34;4851335;29;20081;-82
2022/09/26 10:50:24;;;;;;;0.70;0.70;;;;;;;7.83;84.61;98613.28;4833502;29;20459;-81
2022/09/26 10:53:21;;;;;;;0.70;0.70;;;;;;;7.93;83.86;98607.31;4838130;29;20183;-80
2022/09/26 10:55:55;;;;;;;0.80;0.80;;;;;;;8.19;83.23;98605.94;4870308;29;20053;-81
2022/09/26 10:58:28;;;;;;;0.80;0.80;;;;;;;8.42;81.66;98605.88;4912836;29;20456;-82
2022/09/26 11:01:02;;;;;;;0.70;0.70;;;;;;;8.48;81.73;98595.22;4850678;29;20144;-83
2022/09/26 11:03:42;;;;;;;0.80;0.80;;;;;;;8.60;81.49;98602.19;4891911;29;20089;-81
2022/09/26 11:06:34;;;;;;;0.70;0.70;;;;;;;8.76;80.59;98607.81;4906770;29;20052;-81
2022/09/26 11:09:31;;;;;;;0.70;0.70;;;;;;;8.78;80.42;98600.34;4897973;29;20087;-81
2022/09/26 11:12:28;;;;;;;0.70;0.70;;;;;;;8.67;79.62;98613.59;4920152;29;20059;-81
2022/09/26 11:15:10;;;;;;;0.70;0.70;;;;;;;8.47;79.29;98613.25;4898804;29;20115;-81
2022/09/26 11:17:43;;;;;;;0.70;0.70;;;;;;;8.36;79.87;98614.88;4901433;29;20048;-80
2022/09/26 11:20:37;;;;;;;0.70;0.70;;;;;;;8.33;80.17;98617.22;4918625;29;20128;-81
2022/09/26 11:23:21;;;;;;;0.70;0.70;;;;;;;8.46;79.16;98627.75;4913014;29;20503;-81
2022/09/26 11:26:17;;;;;;;0.70;0.70;;;;;;;8.40;79.10;98617.94;4918719;29;20079;-81
2022/09/26 11:29:26;;;;;;;0.70;0.70;;;;;;;8.29;79.00;98616.09;4896200;29;20151;-81
2022/09/26 11:32:04;;;;;;;0.70;0.70;;;;;;;8.18;79.80;98633.88;4886522;29;20590;-81
2022/09/26 11:35:01;;;;;;;0.60;0.60;;;;;;;8.06;80.48;98625.84;4868601;29;20140;-80
2022/09/26 11:38:02;;;;;;;0.60;0.60;;;;;;;7.97;81.15;98625.38;4859200;29;20059;-82
2022/09/26 11:40:53;;;;;;;0.60;0.60;;;;;;;7.93;81.78;98626.13;4874474;29;20167;-83
2022/09/26 11:43:51;;;;;;;0.70;0.70;;;;;;;7.90;82.11;98631.94;4872163;29;20616;-80
2022/09/26 11:46:59;;;;;;;0.70;0.70;;;;;;;7.91;82.98;98631.72;4876799;29;20065;-82
2022/09/26 11:50:08;;;;;;;0.60;0.60;;;;;;;7.91;83.73;98630.91;4876685;29;20097;-82
2022/09/26 11:53:16;;;;;;;0.70;0.70;;;;;;;7.89;84.53;98646.44;4884999;29;20077;-81
2022/09/26 11:55:50;;;;;;;0.70;0.70;;;;;;;7.97;84.62;98646.06;4857821;29;20543;-83
2022/09/26 11:58:24;;;;;;;0.70;0.70;;;;;;;7.93;84.92;98651.09;4858603;29;20429;-83
2022/09/26 12:01:15;;;;;;;0.70;0.70;;;;;;;7.94;85.38;98647.34;4858660;29;20061;-82
2022/09/26 12:04:14;;;;;;;0.70;0.70;;;;;;;8.04;85.14;98649.44;4855752;29;20433;-82
2022/09/26 12:06:48;;;;;;;0.70;0.70;;;;;;;8.08;84.91;98647.09;4856288;29;20114;-85
2022/09/26 12:09:40;;;;;;;0.77;0.77;;;;;;;8.14;84.19;98656.91;4841133;29;20068;-81
2022/09/26 12:12:18;;;;;;;0.70;0.70;;;;;;;8.14;83.81;98657.72;4820680;29;20511;-82
2022/09/26 12:15:24;;;;;;;0.70;0.70;;;;;;;8.17;83.60;98649.19;4804431;29;20054;-82
2022/09/26 12:18:11;;;;;;;0.60;0.60;;;;;;;8.22;83.59;98659.22;4820157;29;20061;-83
2022/09/26 12:21:03;;;;;;;0.60;0.60;;;;;;;8.14;83.45;98664.97;4821106;29;20123;-83
2022/09/26 12:23:45;;;;;;;0.70;0.70;;;;;;;8.10;83.96;98667.34;4821376;29;20540;-82
2022/09/26 12:26:29;;;;;;;0.60;0.60;;;;;;;8.17;83.59;98659.94;4836753;29;20496;-82
2022/09/26 12:29:08;;;;;;;0.65;0.65;;;;;;;8.20;83.35;98661.31;4835481;29;20054;-82
2022/09/26 12:31:53;;;;;;;0.60;0.60;;;;;;;8.29;83.18;98659.09;4803890;29;20149;-82
2022/09/26 12:34:39;;;;;;;0.60;0.60;;;;;;;8.18;82.81;98658.91;4859629;29;20152;-82
2022/09/26 12:37:31;;;;;;;0.60;0.60;;;;;;;8.14;82.67;98656.91;4867675;29;20084;-82
2022/09/26 12:40:00;;;;;;;0.60;0.60;;;;;;;8.17;82.88;98657.25;4873259;29;20068;-82
2022/09/26 12:42:50;;;;;;;0.60;0.60;;;;;;;8.13;82.38;98656.09;4858924;29;20060;-81
2022/09/26 12:45:37;;;;;;;0.65;0.65;;;;;;;8.19;82.29;98660.50;4866769;29;20072;-81
2022/09/26 12:48:20;;;;;;;0.63;0.63;;;;;;;8.24;82.07;98663.31;4924915;29;20060;-83
2022/09/26 12:51:08;;;;;;;0.60;0.60;;;;;;;8.21;81.45;98668.34;4909391;29;20052;-83